createdAt,value
2018-04-26T00:00:58.677Z,14.40
2018-04-26T00:03:26.197Z,14.20
2018-04-26T00:05:53.728Z,14.20
2018-04-26T00:08:22.043Z,13.90
2018-04-26T00:10:49.566Z,13.80
2018-04-26T00:13:19.102Z,13.90
2018-04-26T00:15:46.630Z,13.60
2018-04-26T00:18:14.194Z,13.40
2018-04-26T00:20:42.488Z,13.30
2018-04-26T00:23:10.047Z,13.30
2018-04-26T00:25:37.578Z,13.40
2018-04-26T00:28:05.873Z,13.50
2018-04-26T00:30:34.184Z,13.10
2018-04-26T00:33:01.697Z,13.10
2018-04-26T00:35:30.006Z,13.00
2018-04-26T00:37:57.533Z,13.00
2018-04-26T00:40:25.107Z,13.10
2018-04-26T00:42:53.401Z,13.20
2018-04-26T00:45:21.002Z,13.20
2018-04-26T00:47:48.525Z,13.20
2018-04-26T00:50:16.048Z,13.20
2018-04-26T00:52:44.357Z,13.00
2018-04-26T00:55:11.899Z,13.00
2018-04-26T00:57:39.463Z,12.50
2018-04-26T01:00:07.013Z,12.10
2018-04-26T01:02:35.325Z,12.00
2018-04-26T01:05:02.847Z,12.00
2018-04-26T01:07:30.400Z,12.10
2018-04-26T01:09:57.929Z,12.00
2018-04-26T01:12:25.469Z,12.10
2018-04-26T01:14:53.029Z,12.00
2018-04-26T01:17:20.550Z,12.10
2018-04-26T01:19:48.099Z,12.10
2018-04-26T01:22:16.402Z,12.00
2018-04-26T01:24:43.959Z,11.90
2018-04-26T01:27:11.489Z,11.90
2018-04-26T01:29:39.818Z,12.10
2018-04-26T01:32:07.340Z,12.10
2018-04-26T01:34:34.869Z,12.00
2018-04-26T01:37:14.253Z,12.00
2018-04-26T01:39:41.781Z,12.00
2018-04-26T01:42:09.329Z,12.10
2018-04-26T01:44:37.615Z,12.00
2018-04-26T01:47:05.165Z,12.00
2018-04-26T01:49:33.459Z,11.90
2018-04-26T01:52:01.061Z,11.90
2018-04-26T01:54:28.582Z,11.90
2018-04-26T01:56:56.109Z,12.00
2018-04-26T01:59:23.673Z,12.00
2018-04-26T02:01:51.198Z,12.00
2018-04-26T02:04:20.721Z,12.00
2018-04-26T02:06:48.247Z,12.10
2018-04-26T02:09:15.798Z,12.20
2018-04-26T02:11:43.321Z,12.10
2018-04-26T02:14:11.642Z,12.20
2018-04-26T02:16:39.180Z,12.20
2018-04-26T02:19:06.712Z,12.20
2018-04-26T02:21:34.278Z,12.30
2018-04-26T02:24:01.804Z,12.30
2018-04-26T02:26:29.354Z,12.20
2018-04-26T02:28:56.881Z,12.20
2018-04-26T02:31:24.444Z,12.20
2018-04-26T02:33:51.995Z,12.00
2018-04-26T02:36:19.561Z,12.00
2018-04-26T02:38:48.070Z,12.00
2018-04-26T02:41:15.607Z,12.00
2018-04-26T02:43:45.081Z,12.00
2018-04-26T02:46:13.636Z,12.10
2018-04-26T02:48:41.201Z,12.20
2018-04-26T02:51:09.498Z,11.90
2018-04-26T02:53:37.089Z,11.90
2018-04-26T02:56:05.571Z,12.00
2018-04-26T02:58:33.204Z,11.90
2018-04-26T03:01:01.517Z,12.20
2018-04-26T03:03:29.085Z,12.20
2018-04-26T03:05:58.749Z,12.30
2018-04-26T03:08:26.290Z,12.30
2018-04-26T03:10:54.619Z,12.30
2018-04-26T03:13:22.147Z,12.30
2018-04-26T03:15:49.703Z,12.30
2018-04-26T03:18:17.257Z,12.30
2018-04-26T03:20:46.584Z,12.00
2018-04-26T03:23:14.101Z,12.00
2018-04-26T03:25:43.337Z,11.80
2018-04-26T03:28:10.886Z,11.80
2018-04-26T03:30:39.386Z,11.90
2018-04-26T03:33:06.950Z,11.70
2018-04-26T03:35:34.504Z,11.70
2018-04-26T03:38:02.068Z,11.30
2018-04-26T03:40:29.608Z,11.20
2018-04-26T03:42:57.184Z,11.10
2018-04-26T03:45:25.488Z,11.10
2018-04-26T03:47:53.005Z,11.10
2018-04-26T03:50:20.556Z,11.00
2018-04-26T03:52:48.083Z,11.00
2018-04-26T03:55:15.641Z,11.20
2018-04-26T03:57:43.190Z,11.30
2018-04-26T04:00:22.869Z,11.40
2018-04-26T04:03:02.145Z,11.50
2018-04-26T04:05:42.517Z,11.60
2018-04-26T04:08:10.050Z,11.60
2018-04-26T04:10:38.558Z,11.70
2018-04-26T04:13:06.084Z,11.60
2018-04-26T04:15:33.618Z,11.60
2018-04-26T04:18:01.174Z,11.60
2018-04-26T04:20:28.708Z,11.60
2018-04-26T04:22:57.040Z,11.60
2018-04-26T04:25:24.569Z,11.60
2018-04-26T04:27:52.152Z,11.70
2018-04-26T04:30:19.681Z,11.60
2018-04-26T04:32:47.249Z,11.60
2018-04-26T04:35:14.847Z,11.40
2018-04-26T04:37:42.353Z,11.20
2018-04-26T04:40:10.341Z,11.10
2018-04-26T04:42:37.896Z,11.30
2018-04-26T04:45:05.485Z,11.20
2018-04-26T04:47:33.005Z,11.20
2018-04-26T04:50:01.319Z,10.90
2018-04-26T04:52:28.840Z,10.80
2018-04-26T04:54:56.393Z,10.90
2018-04-26T04:57:24.680Z,11.20
2018-04-26T04:59:52.964Z,11.30
2018-04-26T05:02:20.513Z,11.30
2018-04-26T05:04:48.808Z,11.20
2018-04-26T05:07:16.426Z,11.20
2018-04-26T05:09:43.942Z,11.10
2018-04-26T05:12:11.505Z,11.10
2018-04-26T05:14:39.030Z,11.40
2018-04-26T05:17:06.580Z,11.50
2018-04-26T05:19:34.937Z,11.70
2018-04-26T05:22:02.426Z,11.60
2018-04-26T05:24:29.972Z,11.80
2018-04-26T05:26:58.269Z,12.00
2018-04-26T05:29:25.999Z,12.00
2018-04-26T05:31:54.702Z,12.10
2018-04-26T05:34:22.290Z,12.10
2018-04-26T05:36:49.817Z,12.00
2018-04-26T05:39:19.225Z,12.20
2018-04-26T05:41:47.513Z,12.10
2018-04-26T05:44:15.055Z,12.10
2018-04-26T05:46:42.615Z,12.10
2018-04-26T05:49:10.908Z,12.00
2018-04-26T05:51:38.458Z,12.00
2018-04-26T05:54:05.985Z,12.00
2018-04-26T05:56:33.540Z,11.90
2018-04-26T05:59:01.056Z,11.80
2018-04-26T06:01:28.581Z,11.70
2018-04-26T06:03:56.902Z,11.80
2018-04-26T06:06:24.429Z,11.70
2018-04-26T06:08:51.999Z,11.70
2018-04-26T06:11:19.558Z,11.80
2018-04-26T06:13:47.105Z,11.80
2018-04-26T06:16:14.637Z,11.70
2018-04-26T06:18:42.210Z,11.70
2018-04-26T06:23:46.357Z,11.80
2018-04-26T06:26:14.862Z,11.90
2018-04-26T06:28:42.409Z,12.10
2018-04-26T06:31:10.040Z,12.20
2018-04-26T06:33:37.508Z,12.20
2018-04-26T06:36:05.104Z,12.40
2018-04-26T06:38:35.496Z,12.40
2018-04-26T06:41:03.118Z,12.20
2018-04-26T06:43:30.674Z,12.10
2018-04-26T06:45:58.233Z,12.00
2018-04-26T06:48:25.788Z,12.00
2018-04-26T06:50:53.328Z,11.90
2018-04-26T06:53:21.334Z,12.00
2018-04-26T06:55:48.879Z,12.10
2018-04-26T06:58:17.405Z,12.00
2018-04-26T07:00:44.937Z,12.20
2018-04-26T07:03:12.487Z,12.10
2018-04-26T07:05:40.048Z,12.20
2018-04-26T07:08:08.372Z,12.70
2018-04-26T07:10:35.925Z,12.60
2018-04-26T07:13:03.457Z,12.70
2018-04-26T07:15:31.032Z,12.80
2018-04-26T07:17:58.565Z,12.90
2018-04-26T07:20:26.129Z,13.20
2018-04-26T07:22:53.665Z,13.50
2018-04-26T07:25:21.220Z,13.60
2018-04-26T07:27:48.753Z,13.20
2018-04-26T07:30:16.322Z,13.10
2018-04-26T07:32:43.844Z,13.10
2018-04-26T07:35:11.375Z,12.80
2018-04-26T07:37:38.947Z,13.00
2018-04-26T07:40:07.236Z,12.90
2018-04-26T07:42:35.554Z,13.00
2018-04-26T07:45:03.083Z,12.90
2018-04-26T07:47:30.746Z,12.80
2018-04-26T07:49:58.283Z,12.60
2018-04-26T07:52:27.789Z,12.60
2018-04-26T07:54:56.290Z,12.50
2018-04-26T07:57:23.822Z,12.50
2018-04-26T07:59:51.391Z,12.40
2018-04-26T08:02:19.684Z,12.50
2018-04-26T08:04:47.238Z,12.50
2018-04-26T08:07:14.773Z,13.10
2018-04-26T08:09:42.386Z,13.50
2018-04-26T08:12:09.908Z,13.80
2018-04-26T08:14:38.229Z,13.80
2018-04-26T08:17:05.870Z,13.80
2018-04-26T08:19:33.493Z,13.70
2018-04-26T08:22:01.017Z,13.80
2018-04-26T08:24:28.554Z,14.00
2018-04-26T08:26:56.116Z,14.00
2018-04-26T08:29:23.641Z,14.10
2018-04-26T08:31:51.961Z,13.70
2018-04-26T08:34:19.484Z,13.70
2018-04-26T08:36:47.114Z,13.70
2018-04-26T08:39:14.598Z,13.70
2018-04-26T08:41:42.136Z,13.00
2018-04-26T08:44:10.672Z,12.80
2018-04-26T08:46:38.197Z,12.40
2018-04-26T08:49:06.725Z,12.70
2018-04-26T08:51:35.221Z,12.70
2018-04-26T08:54:02.796Z,13.00
2018-04-26T08:56:31.303Z,12.70
2018-04-26T08:58:58.861Z,12.90
2018-04-26T09:01:26.395Z,13.50
2018-04-26T09:03:53.942Z,14.10
2018-04-26T09:06:21.526Z,13.80
2018-04-26T09:08:49.071Z,14.20
2018-04-26T09:11:16.634Z,14.40
2018-04-26T09:13:44.925Z,14.40
2018-04-26T09:16:12.574Z,14.30
2018-04-26T09:18:40.049Z,14.00
2018-04-26T09:21:07.604Z,14.00
2018-04-26T09:23:35.897Z,13.60
2018-04-26T09:26:03.451Z,13.60
2018-04-26T09:28:31.013Z,13.40
2018-04-26T09:30:58.541Z,13.40
2018-04-26T09:33:26.098Z,13.50
2018-04-26T09:35:54.384Z,13.00
2018-04-26T09:38:24.580Z,13.10
2018-04-26T09:40:52.110Z,13.00
2018-04-26T09:43:19.677Z,13.40
2018-04-26T09:45:47.202Z,13.70
2018-04-26T09:48:14.770Z,13.30
2018-04-26T09:50:42.309Z,13.90
2018-04-26T09:53:09.860Z,13.80
2018-04-26T09:55:38.156Z,13.70
2018-04-26T09:58:05.689Z,13.70
2018-04-26T10:00:34.997Z,13.30
2018-04-26T10:03:12.214Z,13.30
2018-04-26T10:05:41.665Z,12.90
2018-04-26T10:08:09.197Z,13.10
2018-04-26T10:10:36.761Z,13.80
2018-04-26T10:13:04.307Z,14.00
2018-04-26T10:15:32.773Z,13.90
2018-04-26T10:18:00.318Z,14.30
2018-04-26T10:20:27.848Z,14.60
2018-04-26T10:22:56.382Z,14.30
2018-04-26T10:25:24.211Z,14.60
2018-04-26T10:27:51.813Z,14.50
2018-04-26T10:30:20.314Z,15.10
2018-04-26T10:32:47.924Z,15.60
2018-04-26T10:35:15.460Z,16.00
2018-04-26T10:37:43.010Z,15.70
2018-04-26T10:40:10.555Z,15.70
2018-04-26T10:42:38.125Z,16.00
2018-04-26T10:45:05.647Z,16.00
2018-04-26T10:47:33.208Z,15.50
2018-04-26T10:50:00.753Z,15.70
2018-04-26T10:52:29.221Z,15.60
2018-04-26T10:54:56.803Z,15.80
2018-04-26T10:57:24.342Z,16.70
2018-04-26T10:59:51.922Z,16.80
2018-04-26T11:02:19.454Z,16.90
2018-04-26T11:04:47.049Z,16.70
2018-04-26T11:07:14.622Z,16.90
2018-04-26T11:09:42.178Z,17.20
2018-04-26T11:12:10.650Z,16.90
2018-04-26T11:14:38.201Z,16.80
2018-04-26T11:17:06.713Z,16.90
2018-04-26T11:19:34.243Z,16.60
2018-04-26T11:22:01.802Z,16.30
2018-04-26T11:24:29.404Z,16.70
2018-04-26T11:26:56.911Z,17.00
2018-04-26T11:29:24.454Z,17.30
2018-04-26T11:31:52.005Z,17.70
2018-04-26T11:34:19.545Z,18.10
2018-04-26T11:36:47.095Z,17.80
2018-04-26T11:39:15.598Z,17.20
2018-04-26T11:41:44.208Z,16.80
2018-04-26T11:44:11.741Z,17.10
2018-04-26T11:46:39.313Z,17.50
2018-04-26T11:49:06.852Z,18.20
2018-04-26T11:51:34.405Z,18.40
2018-04-26T11:54:02.721Z,17.70
2018-04-26T11:56:30.242Z,17.70
2018-04-26T11:59:00.512Z,16.90
2018-04-26T12:01:28.041Z,16.90
2018-04-26T12:03:55.614Z,17.00
2018-04-26T12:06:23.146Z,16.80
2018-04-26T12:08:50.673Z,16.50
2018-04-26T12:11:18.241Z,16.80
2018-04-26T12:13:45.764Z,17.40
2018-04-26T12:16:14.325Z,17.60
2018-04-26T12:18:41.846Z,17.40
2018-04-26T12:21:09.398Z,17.30
2018-04-26T12:23:37.923Z,16.90
2018-04-26T12:26:05.494Z,16.50
2018-04-26T12:28:33.031Z,16.20
2018-04-26T12:31:01.330Z,16.50
2018-04-26T12:33:28.889Z,16.50
2018-04-26T12:35:56.437Z,17.30
2018-04-26T12:38:23.988Z,17.30
2018-04-26T12:40:51.504Z,17.40
2018-04-26T12:43:19.056Z,17.70
2018-04-26T12:45:46.583Z,17.70
2018-04-26T12:48:14.133Z,17.10
2018-04-26T12:50:41.664Z,16.90
2018-04-26T12:53:10.996Z,16.80
2018-04-26T12:55:38.540Z,16.80
2018-04-26T12:58:08.147Z,16.90
2018-04-26T13:00:35.617Z,17.00
2018-04-26T13:03:03.145Z,17.10
2018-04-26T13:05:30.717Z,17.70
2018-04-26T13:07:58.296Z,18.40
2018-04-26T13:10:25.855Z,18.90
2018-04-26T13:12:53.373Z,19.00
2018-04-26T13:15:20.929Z,18.30
2018-04-26T13:17:48.448Z,17.60
2018-04-26T13:20:16.009Z,17.80
2018-04-26T13:22:43.541Z,18.40
2018-04-26T13:25:11.716Z,19.10
2018-04-26T13:27:39.245Z,20.00
2018-04-26T13:30:07.552Z,20.20
2018-04-26T13:32:35.121Z,20.20
2018-04-26T13:35:02.653Z,20.10
2018-04-26T13:37:30.223Z,20.50
2018-04-26T13:39:57.758Z,21.10
2018-04-26T13:42:26.136Z,20.40
2018-04-26T13:44:53.666Z,20.30
2018-04-26T13:47:21.217Z,20.60
2018-04-26T13:49:48.757Z,20.60
2018-04-26T13:52:16.310Z,20.40
2018-04-26T13:54:43.833Z,20.50
2018-04-26T13:57:11.409Z,20.00
2018-04-26T13:59:38.933Z,19.40
2018-04-26T14:02:06.502Z,19.40
2018-04-26T14:04:34.826Z,19.40
2018-04-26T14:07:02.385Z,19.30
2018-04-26T14:09:29.942Z,19.30
2018-04-26T14:11:57.468Z,19.30
2018-04-26T14:14:25.021Z,19.10
2018-04-26T14:16:53.321Z,18.30
2018-04-26T14:19:20.893Z,18.20
2018-04-26T14:21:48.417Z,18.00
2018-04-26T14:24:15.964Z,17.90
2018-04-26T14:26:44.308Z,17.70
2018-04-26T14:29:11.867Z,17.70
2018-04-26T14:31:39.402Z,17.30
2018-04-26T14:34:07.228Z,16.40
2018-04-26T14:36:40.415Z,16.10
2018-04-26T14:39:08.756Z,16.50
2018-04-26T14:41:36.282Z,16.50
2018-04-26T14:44:03.808Z,16.50
2018-04-26T14:46:31.377Z,16.90
2018-04-26T14:48:59.694Z,17.40
2018-04-26T14:51:27.264Z,17.40
2018-04-26T14:53:54.788Z,16.70
2018-04-26T14:56:22.342Z,16.40
2018-04-26T14:58:50.630Z,15.40
2018-04-26T15:01:18.181Z,15.40
2018-04-26T15:03:46.468Z,15.60
2018-04-26T15:06:14.028Z,15.50
2018-04-26T15:08:41.575Z,16.00
2018-04-26T15:11:10.104Z,15.90
2018-04-26T15:13:37.632Z,15.70
2018-04-26T15:16:05.608Z,15.50
2018-04-26T15:18:33.133Z,15.30
2018-04-26T15:21:00.653Z,15.60
2018-04-26T15:23:28.202Z,15.70
2018-04-26T15:25:55.747Z,16.10
2018-04-26T15:28:23.306Z,16.00
2018-04-26T15:30:50.849Z,16.20
2018-04-26T15:33:20.363Z,16.30
2018-04-26T15:35:48.857Z,15.70
2018-04-26T15:38:16.401Z,15.50
2018-04-26T15:40:43.929Z,15.50
2018-04-26T15:43:11.472Z,15.20
2018-04-26T15:45:38.997Z,15.40
2018-04-26T15:48:06.553Z,15.60
2018-04-26T15:50:51.747Z,16.00
2018-04-26T15:53:31.153Z,16.30
2018-04-26T15:56:10.529Z,16.70
2018-04-26T16:02:11.296Z,16.70
2018-04-26T16:04:50.586Z,16.40
2018-04-26T16:07:49.620Z,15.90
2018-04-26T16:10:35.370Z,17.10
2018-04-26T16:13:21.559Z,20.80
2018-04-26T16:16:06.640Z,22.60
2018-04-26T16:18:46.030Z,23.80
2018-04-26T16:21:31.070Z,25.10
2018-04-26T16:27:21.960Z,22.60
2018-04-26T16:30:14.029Z,20.40
2018-04-26T16:32:59.014Z,18.90
2018-04-26T16:35:40.164Z,17.30
2018-04-26T16:38:19.649Z,17.30
2018-04-26T16:40:47.173Z,16.70
2018-04-26T16:43:14.730Z,16.90
2018-04-26T16:45:42.254Z,17.10
2018-04-26T16:48:09.813Z,17.00
2018-04-26T16:50:37.344Z,16.50
2018-04-26T16:53:04.904Z,16.20
2018-04-26T16:55:32.428Z,16.10
2018-04-26T16:57:59.985Z,15.90
2018-04-26T17:00:27.514Z,16.00
2018-04-26T17:02:55.063Z,15.80
2018-04-26T17:05:23.565Z,15.70
2018-04-26T17:07:51.124Z,15.30
2018-04-26T17:10:19.657Z,15.10
2018-04-26T17:12:47.973Z,14.80
2018-04-26T17:15:15.500Z,14.80
2018-04-26T17:17:43.080Z,15.00
2018-04-26T17:20:10.619Z,14.80
2018-04-26T17:22:38.966Z,15.10
2018-04-26T17:25:06.493Z,15.10
2018-04-26T17:27:34.079Z,15.20
2018-04-26T17:30:01.649Z,15.20
2018-04-26T17:32:29.579Z,15.10
2018-04-26T17:34:57.178Z,14.90
2018-04-26T17:37:24.686Z,14.80
2018-04-26T17:39:52.229Z,14.80
2018-04-26T17:42:19.805Z,14.80
2018-04-26T17:44:47.381Z,14.80
2018-04-26T17:47:14.907Z,14.70
2018-04-26T17:49:42.466Z,14.50
2018-04-26T17:52:10.056Z,14.40
2018-04-26T17:54:37.589Z,14.30
2018-04-26T17:57:05.152Z,14.00
2018-04-26T17:59:33.636Z,14.10
2018-04-26T18:02:03.151Z,14.10
2018-04-26T18:04:31.685Z,14.10
2018-04-26T18:06:59.978Z,14.10
2018-04-26T18:09:28.433Z,14.20
2018-04-26T18:11:55.936Z,14.10
2018-04-26T18:14:24.421Z,14.00
2018-04-26T18:16:51.952Z,13.80
2018-04-26T18:19:20.287Z,13.70
2018-04-26T18:21:47.826Z,13.70
2018-04-26T18:24:15.485Z,13.70
2018-04-26T18:26:43.006Z,13.70
2018-04-26T18:29:10.552Z,13.70
2018-04-26T18:31:38.070Z,13.80
2018-04-26T18:34:05.612Z,13.80
2018-04-26T18:36:34.176Z,13.70
2018-04-26T18:39:01.725Z,13.70
2018-04-26T18:41:29.244Z,13.70
2018-04-26T18:43:56.799Z,13.60
2018-04-26T18:46:24.329Z,13.50
2018-04-26T18:48:51.873Z,13.50
2018-04-26T18:51:19.409Z,13.50
2018-04-26T18:53:46.988Z,13.40
2018-04-26T18:56:14.522Z,13.30
2018-04-26T18:58:42.072Z,13.20
2018-04-26T19:01:09.595Z,13.10
2018-04-26T19:03:37.144Z,13.00
2018-04-26T19:06:04.661Z,12.90
2018-04-26T19:08:34.938Z,12.70
2018-04-26T19:11:02.466Z,12.70
2018-04-26T19:13:30.014Z,12.60
2018-04-26T19:15:57.553Z,12.50
2018-04-26T19:18:25.102Z,12.50
2018-04-26T19:20:53.571Z,12.40
2018-04-26T19:23:21.137Z,12.30
2018-04-26T19:25:49.428Z,12.30
2018-04-26T19:28:17.030Z,12.30
2018-04-26T19:30:44.553Z,12.40
2018-04-26T19:33:12.100Z,12.30
2018-04-26T19:35:39.635Z,12.30
2018-04-26T19:38:07.187Z,12.30
2018-04-26T19:40:35.713Z,12.20
2018-04-26T19:43:03.285Z,12.20
2018-04-26T19:45:30.822Z,12.10
2018-04-26T19:47:58.375Z,12.00
2018-04-26T19:50:26.676Z,11.90
2018-04-26T19:52:55.001Z,11.90
2018-04-26T19:55:22.539Z,11.90
2018-04-26T19:57:50.433Z,12.00
2018-04-26T20:00:18.046Z,11.80
2018-04-26T20:02:48.409Z,11.70
2018-04-26T20:05:16.699Z,11.80
2018-04-26T20:07:44.250Z,11.80
2018-04-26T20:10:11.769Z,11.80
2018-04-26T20:12:39.329Z,11.80
2018-04-26T20:15:06.861Z,11.80
2018-04-26T20:17:34.443Z,11.70
2018-04-26T20:20:01.977Z,11.80
2018-04-26T20:22:30.499Z,11.80
2018-04-26T20:24:58.027Z,11.80
2018-04-26T20:27:26.444Z,11.70
2018-04-26T20:29:53.978Z,11.70
2018-04-26T20:32:21.544Z,11.70
2018-04-26T20:34:49.077Z,11.70
2018-04-26T20:37:16.629Z,11.70
2018-04-26T20:39:44.912Z,11.60
2018-04-26T20:42:14.869Z,11.60
2018-04-26T20:44:48.580Z,11.70
2018-04-26T20:47:16.133Z,11.70
2018-04-26T20:49:43.725Z,11.70
2018-04-26T20:52:12.064Z,11.60
2018-04-26T20:54:39.589Z,11.60
2018-04-26T20:57:07.909Z,11.70
2018-04-26T20:59:35.434Z,11.60
2018-04-26T21:02:02.981Z,11.70
2018-04-26T21:04:30.514Z,11.70
2018-04-26T21:06:58.077Z,11.60
2018-04-26T21:09:30.266Z,11.60
2018-04-26T21:11:57.801Z,11.40
2018-04-26T21:14:25.354Z,11.40
2018-04-26T21:16:52.894Z,11.40
2018-04-26T21:19:21.402Z,11.50
2018-04-26T21:21:48.937Z,11.60
2018-04-26T21:24:16.485Z,11.70
2018-04-26T21:26:44.023Z,11.60
2018-04-26T21:29:11.616Z,11.60
2018-04-26T21:31:39.133Z,11.50
2018-04-26T21:34:06.653Z,11.30
2018-04-26T21:36:34.201Z,11.30
2018-04-26T21:39:01.737Z,11.20
2018-04-26T21:41:29.298Z,11.30
2018-04-26T21:43:56.819Z,11.20
2018-04-26T21:46:24.381Z,11.30
2018-04-26T21:48:52.677Z,11.50
2018-04-26T21:51:25.942Z,11.50
2018-04-26T21:54:00.191Z,11.40
2018-04-26T21:56:33.497Z,11.30
2018-04-26T21:59:07.669Z,11.40
2018-04-26T22:01:41.831Z,11.40
2018-04-26T22:04:09.380Z,11.30
2018-04-26T22:06:36.933Z,11.30
2018-04-26T22:09:05.428Z,11.30
2018-04-26T22:11:33.019Z,11.30
2018-04-26T22:14:00.521Z,11.20
2018-04-26T22:16:28.057Z,11.10
2018-04-26T22:18:58.335Z,11.00
2018-04-26T22:21:25.857Z,11.00
2018-04-26T22:23:53.410Z,10.60
2018-04-26T22:26:20.940Z,10.60
2018-04-26T22:28:48.498Z,10.60
2018-04-26T22:31:16.017Z,10.60
2018-04-26T22:33:45.539Z,10.70
2018-04-26T22:36:13.094Z,10.70
2018-04-26T22:38:40.644Z,10.60
2018-04-26T22:41:08.248Z,10.60
2018-04-26T22:43:36.548Z,10.50
2018-04-26T22:46:04.109Z,10.50
2018-04-26T22:48:31.631Z,10.50
2018-04-26T22:50:59.191Z,10.40
2018-04-26T22:53:26.742Z,10.30
2018-04-26T22:55:55.224Z,10.20
2018-04-26T22:58:22.783Z,10.10
2018-04-26T23:00:50.307Z,10.00
2018-04-26T23:03:17.857Z,9.90
2018-04-26T23:05:45.393Z,9.80
2018-04-26T23:08:12.974Z,9.80
2018-04-26T23:10:40.513Z,9.70
2018-04-26T23:13:08.061Z,9.70
2018-04-26T23:15:35.596Z,9.70
2018-04-26T23:18:03.109Z,9.60
2018-04-26T23:20:30.655Z,9.60
2018-04-26T23:22:58.188Z,9.60
2018-04-26T23:25:25.737Z,9.70
2018-04-26T23:27:53.257Z,9.80
2018-04-26T23:30:20.825Z,9.80
2018-04-26T23:32:48.342Z,9.80
2018-04-26T23:35:15.893Z,9.80
2018-04-26T23:37:44.177Z,9.90
2018-04-26T23:40:11.707Z,9.90
2018-04-26T23:42:41.192Z,10.00
2018-04-26T23:45:08.710Z,10.00
2018-04-26T23:47:36.257Z,10.00
2018-04-26T23:50:03.777Z,9.90
2018-04-26T23:52:31.317Z,9.90
2018-04-26T23:54:58.845Z,9.80
2018-04-26T23:57:26.393Z,9.80
2018-04-26T23:59:53.917Z,9.70
